CKM9 weather

Kentville (Camp Aldershot) Heliport
Kentville, Nova Scotia, Canada

Public forecast

Using degrees Celsius for public forecast. Weather courtesy of forecast.io.

Closest aviation weather report (METAR) to Kentville (Camp Aldershot) Heliport

Closest report is CFB Greenwood, 18.5 nm (34.2 km) WSW. Retrieved 2020/08/03 20:00 UTC (28 minutes ago):

CYZX 032000Z 23013G20KT 15SM SCT050 BKN250 31/22 A2985 RMK SC3CI2 SLP109

Closest aviation forecast (TAF) to Kentville (Camp Aldershot) Heliport

Closest forecast is CFB Greenwood, 18.5 nm (34.2 km) WSW. Retrieved 2020/08/03 18:33 UTC (2 hours ago):

TAF CYZX 031730Z 0318/0418 21015KT P6SM BKN020 BECMG 0318/0320 24018G28KT FEW030 FM040100 25012KT P6SM SCT040 RMK NXT FCST BY 040000Z